createdAt,value
2023-03-29T00:02:05.115Z,-1.79
2023-03-29T00:04:32.058Z,-1.75
2023-03-29T00:07:04.604Z,-1.77
2023-03-29T00:09:35.871Z,-1.79
2023-03-29T00:12:02.631Z,-1.82
2023-03-29T00:14:30.955Z,-1.88
2023-03-29T00:16:59.014Z,-1.86
2023-03-29T00:19:26.134Z,-1.89
2023-03-29T00:21:53.106Z,-1.89
2023-03-29T00:24:21.240Z,-1.91
2023-03-29T00:26:48.513Z,-1.92
2023-03-29T00:29:15.226Z,-1.92
2023-03-29T00:31:42.046Z,-1.92
2023-03-29T00:34:09.105Z,-1.88
2023-03-29T00:36:35.884Z,-1.83
2023-03-29T00:39:02.645Z,-1.77
2023-03-29T00:41:29.548Z,-1.76
2023-03-29T00:44:01.708Z,-1.77
2023-03-29T00:46:30.556Z,-1.72
2023-03-29T00:49:07.275Z,-1.72
2023-03-29T00:51:36.783Z,-1.73
2023-03-29T00:54:08.339Z,-1.75
2023-03-29T00:56:38.680Z,-1.75
2023-03-29T00:59:08.444Z,-1.75
2023-03-29T01:01:57.404Z,-1.75
2023-03-29T01:05:05.763Z,-1.68
2023-03-29T01:07:50.391Z,-1.63
2023-03-29T01:10:27.945Z,-1.59
2023-03-29T01:13:03.825Z,-1.56
2023-03-29T01:15:31.530Z,-1.53
2023-03-29T01:18:02.028Z,-1.48
2023-03-29T01:20:49.069Z,-1.44
2023-03-29T01:23:16.027Z,-1.41
2023-03-29T01:26:18.189Z,-1.38
2023-03-29T01:28:55.575Z,-1.36
2023-03-29T01:31:38.865Z,-1.39
2023-03-29T01:34:15.664Z,-1.33
2023-03-29T01:37:04.496Z,-1.31
2023-03-29T01:39:34.222Z,-1.31
2023-03-29T01:42:19.129Z,-1.30
2023-03-29T01:44:51.659Z,-1.30
2023-03-29T01:47:18.734Z,-1.34
2023-03-29T01:50:06.547Z,-1.37
2023-03-29T01:52:42.907Z,-1.34
2023-03-29T01:55:17.397Z,-1.34
2023-03-29T01:57:45.357Z,-1.34
2023-03-29T02:00:19.166Z,-1.34
2023-03-29T02:02:47.886Z,-1.35
2023-03-29T02:05:16.649Z,-1.37
2023-03-29T02:07:46.074Z,-1.37
2023-03-29T02:10:14.466Z,-1.43
2023-03-29T02:12:42.000Z,-1.42
2023-03-29T02:15:18.586Z,-1.54
2023-03-29T02:17:46.393Z,-1.57
2023-03-29T02:20:19.653Z,-1.57
2023-03-29T02:23:02.351Z,-1.61
2023-03-29T02:25:29.635Z,-1.58
2023-03-29T02:27:56.731Z,-1.54
2023-03-29T02:30:27.334Z,-1.62
2023-03-29T02:33:04.803Z,-1.65
2023-03-29T02:35:37.032Z,-1.61
2023-03-29T02:38:07.870Z,-1.61
2023-03-29T02:40:37.716Z,-1.60
2023-03-29T02:43:07.736Z,-1.60
2023-03-29T02:45:37.850Z,-1.50
2023-03-29T02:48:09.088Z,-1.43
2023-03-29T02:50:39.555Z,-1.39
2023-03-29T02:53:13.187Z,-1.31
2023-03-29T02:55:41.895Z,-1.28
2023-03-29T02:58:09.304Z,-1.29
2023-03-29T03:00:43.095Z,-1.31
2023-03-29T03:03:12.037Z,-1.33
2023-03-29T03:05:39.295Z,-1.35
2023-03-29T03:08:07.724Z,-1.36
2023-03-29T03:10:35.846Z,-1.33
2023-03-29T03:13:04.126Z,-1.33
2023-03-29T03:15:35.630Z,-1.32
2023-03-29T03:18:03.851Z,-1.34
2023-03-29T03:20:31.251Z,-1.31
2023-03-29T03:22:58.580Z,-1.22
2023-03-29T03:25:25.358Z,-1.14
2023-03-29T03:27:53.273Z,-1.10
2023-03-29T03:30:23.328Z,-1.07
2023-03-29T03:33:09.246Z,-1.22
2023-03-29T03:36:02.831Z,-1.34
2023-03-29T03:38:31.090Z,-1.35
2023-03-29T03:41:01.507Z,-1.34
2023-03-29T03:43:33.917Z,-1.31
2023-03-29T03:46:02.029Z,-1.31
2023-03-29T03:48:29.957Z,-1.30
2023-03-29T03:51:14.137Z,-1.23
2023-03-29T03:53:41.678Z,-1.23
2023-03-29T03:56:14.671Z,-1.19
2023-03-29T03:59:19.934Z,-1.22
2023-03-29T04:01:56.287Z,-1.22
2023-03-29T04:04:24.854Z,-1.17
2023-03-29T04:07:18.013Z,-1.22
2023-03-29T04:10:13.958Z,-1.18
2023-03-29T04:12:52.961Z,-1.16
2023-03-29T04:15:20.836Z,-1.15
2023-03-29T04:18:00.649Z,-1.11
2023-03-29T04:20:33.837Z,-1.15
2023-03-29T04:23:01.513Z,-1.18
2023-03-29T04:25:29.608Z,-1.14
2023-03-29T04:28:09.917Z,-1.07
2023-03-29T04:30:46.882Z,-1.11
2023-03-29T04:33:13.628Z,-1.19
2023-03-29T04:35:44.077Z,-1.25
2023-03-29T04:38:14.708Z,-1.25
2023-03-29T04:40:44.178Z,-1.21
2023-03-29T04:43:41.413Z,-1.18
2023-03-29T04:46:20.921Z,-1.08
2023-03-29T04:49:07.164Z,-1.00
2023-03-29T04:51:43.998Z,-0.95
2023-03-29T04:54:11.934Z,-0.91
2023-03-29T04:56:57.375Z,-0.90
2023-03-29T04:59:37.137Z,-0.88
2023-03-29T05:02:14.829Z,-0.90
2023-03-29T05:04:44.766Z,-0.87
2023-03-29T05:07:17.688Z,-0.84
2023-03-29T05:09:45.545Z,-0.83
2023-03-29T05:12:12.980Z,-0.81
2023-03-29T05:14:49.000Z,-0.84
2023-03-29T05:17:16.341Z,-0.81
2023-03-29T05:19:44.341Z,-0.92
2023-03-29T05:22:11.100Z,-0.84
2023-03-29T05:24:37.903Z,-0.89
2023-03-29T05:27:13.567Z,-0.89
2023-03-29T05:29:41.887Z,-0.85
2023-03-29T05:32:38.289Z,-0.78
2023-03-29T05:35:08.089Z,-0.72
2023-03-29T05:37:36.047Z,-0.69
2023-03-29T05:40:07.123Z,-0.75
2023-03-29T05:42:44.010Z,-0.73
2023-03-29T05:45:11.817Z,-0.70
2023-03-29T05:47:40.109Z,-0.67
2023-03-29T05:50:09.750Z,-0.56
2023-03-29T05:52:37.616Z,-0.45
2023-03-29T05:55:05.182Z,-0.33
2023-03-29T05:57:32.540Z,-0.26
2023-03-29T05:59:59.484Z,-0.22
2023-03-29T06:02:26.481Z,-0.15
2023-03-29T06:04:55.374Z,-0.15
2023-03-29T06:07:23.477Z,-0.16
2023-03-29T06:10:09.710Z,-0.16
2023-03-29T06:12:39.437Z,-0.17
2023-03-29T06:15:06.584Z,-0.22
2023-03-29T06:17:47.322Z,-0.29
2023-03-29T06:20:14.986Z,-0.28
2023-03-29T06:22:46.768Z,-0.18
2023-03-29T06:25:15.428Z,-0.08
2023-03-29T06:27:46.761Z,-0.06
2023-03-29T06:30:16.957Z,-0.03
2023-03-29T06:32:49.920Z,0.06
2023-03-29T06:35:48.637Z,0.09
2023-03-29T06:38:20.825Z,0.24
2023-03-29T06:41:11.169Z,0.17
2023-03-29T06:44:10.537Z,0.30
2023-03-29T06:46:49.954Z,0.42
2023-03-29T06:49:16.831Z,0.46
2023-03-29T06:52:00.175Z,0.60
2023-03-29T06:54:27.067Z,0.72
2023-03-29T06:57:00.929Z,0.72
2023-03-29T06:59:29.466Z,0.94
2023-03-29T07:01:58.661Z,0.99
2023-03-29T07:04:41.838Z,1.07
2023-03-29T07:07:44.126Z,1.24
2023-03-29T07:10:32.482Z,1.47
2023-03-29T07:13:18.921Z,1.49
2023-03-29T07:15:48.869Z,1.64
2023-03-29T07:18:21.392Z,1.68
2023-03-29T07:20:48.569Z,1.80
2023-03-29T07:23:15.506Z,1.94
2023-03-29T07:25:42.269Z,2.06
2023-03-29T07:28:09.530Z,2.16
2023-03-29T07:30:37.238Z,2.21
2023-03-29T07:33:16.308Z,2.14
2023-03-29T07:35:52.828Z,2.14
2023-03-29T07:38:20.566Z,2.24
2023-03-29T07:41:00.101Z,2.22
2023-03-29T07:43:30.383Z,2.26
2023-03-29T07:46:01.309Z,2.29
2023-03-29T07:48:29.844Z,2.49
2023-03-29T07:51:01.935Z,2.54
2023-03-29T07:53:34.172Z,2.58
2023-03-29T07:56:04.627Z,2.68
2023-03-29T07:58:53.907Z,2.71
2023-03-29T08:01:21.738Z,2.81
2023-03-29T08:04:07.802Z,2.89
2023-03-29T08:06:54.238Z,3.01
2023-03-29T08:09:27.327Z,3.10
2023-03-29T08:11:54.058Z,3.19
2023-03-29T08:14:26.151Z,3.11
2023-03-29T08:17:01.651Z,3.14
2023-03-29T08:19:29.086Z,3.11
2023-03-29T08:22:07.362Z,3.16
2023-03-29T08:24:57.201Z,3.24
2023-03-29T08:27:27.771Z,3.16
2023-03-29T08:29:55.313Z,3.02
2023-03-29T08:32:22.240Z,2.97
2023-03-29T08:34:49.183Z,3.14
2023-03-29T08:37:21.255Z,3.22
2023-03-29T08:39:50.715Z,3.34
2023-03-29T08:43:05.068Z,3.55
2023-03-29T08:46:08.631Z,3.70
2023-03-29T08:48:42.317Z,3.80
2023-03-29T08:51:16.738Z,3.90
2023-03-29T08:53:48.750Z,3.77
2023-03-29T08:56:31.438Z,3.62
2023-03-29T08:59:22.618Z,3.55
2023-03-29T09:01:53.196Z,3.48
2023-03-29T09:04:27.018Z,3.57
2023-03-29T09:07:13.082Z,3.75
2023-03-29T09:09:43.976Z,3.93
2023-03-29T09:12:42.845Z,4.09
2023-03-29T09:15:22.083Z,4.06
2023-03-29T09:18:44.849Z,4.04
2023-03-29T09:21:31.660Z,4.09
2023-03-29T09:24:20.912Z,4.12
2023-03-29T09:27:20.225Z,4.29
2023-03-29T09:30:15.303Z,4.46
2023-03-29T09:33:07.978Z,4.51
2023-03-29T09:36:01.100Z,4.58
2023-03-29T09:38:31.197Z,4.58
2023-03-29T09:41:26.704Z,4.62
2023-03-29T09:43:56.984Z,4.62
2023-03-29T09:46:34.424Z,4.75
2023-03-29T09:49:04.681Z,4.87
2023-03-29T09:51:34.412Z,4.97
2023-03-29T09:54:01.427Z,5.14
2023-03-29T09:56:53.517Z,5.28
2023-03-29T09:59:21.642Z,5.20
2023-03-29T10:01:48.448Z,5.20
2023-03-29T10:04:16.906Z,5.38
2023-03-29T10:06:52.336Z,5.51
2023-03-29T10:09:21.979Z,5.64
2023-03-29T10:11:57.164Z,5.71
2023-03-29T10:14:37.147Z,5.41
2023-03-29T10:17:15.868Z,5.19
2023-03-29T10:19:57.031Z,5.30
2023-03-29T10:22:33.003Z,5.13
2023-03-29T10:24:59.708Z,5.03
2023-03-29T10:27:32.094Z,5.02
2023-03-29T10:30:00.756Z,5.08
2023-03-29T10:32:34.889Z,5.13
2023-03-29T10:35:20.113Z,5.30
2023-03-29T10:37:51.956Z,5.31
2023-03-29T10:40:32.222Z,5.44
2023-03-29T10:43:21.466Z,5.50
2023-03-29T10:45:50.907Z,5.45
2023-03-29T10:48:19.548Z,5.50
2023-03-29T10:50:53.229Z,5.23
2023-03-29T10:53:27.017Z,5.21
2023-03-29T10:56:10.214Z,5.50
2023-03-29T10:58:48.266Z,5.63
2023-03-29T11:01:32.384Z,5.57
2023-03-29T11:04:16.027Z,5.46
2023-03-29T11:07:19.736Z,5.70
2023-03-29T11:10:26.036Z,5.75
2023-03-29T11:13:12.930Z,5.92
2023-03-29T11:16:21.752Z,6.02
2023-03-29T11:19:01.899Z,5.77
2023-03-29T11:21:37.235Z,5.65
2023-03-29T11:24:10.001Z,5.73
2023-03-29T11:27:09.507Z,5.94
2023-03-29T11:30:00.382Z,6.16
2023-03-29T11:32:39.536Z,6.00
2023-03-29T11:35:19.163Z,5.86
2023-03-29T11:38:03.498Z,5.88
2023-03-29T11:40:53.803Z,5.98
2023-03-29T11:43:59.438Z,6.01
2023-03-29T11:46:35.653Z,5.93
2023-03-29T11:49:25.505Z,5.81
2023-03-29T11:52:00.770Z,5.90
2023-03-29T11:54:31.564Z,6.09
2023-03-29T11:57:02.293Z,6.22
2023-03-29T11:59:51.361Z,6.29
2023-03-29T12:02:57.290Z,6.43
2023-03-29T12:05:54.389Z,6.81
2023-03-29T12:08:51.348Z,6.77
2023-03-29T12:11:49.171Z,7.07
2023-03-29T12:14:27.767Z,7.27
2023-03-29T12:17:03.759Z,7.53
2023-03-29T12:19:43.496Z,7.74
2023-03-29T12:22:11.062Z,8.11
2023-03-29T12:24:46.234Z,8.50
2023-03-29T12:27:34.674Z,8.83
2023-03-29T12:30:10.365Z,9.00
2023-03-29T12:32:46.503Z,9.02
2023-03-29T12:35:38.996Z,8.86
2023-03-29T12:38:31.064Z,8.69
2023-03-29T12:41:28.402Z,8.45
2023-03-29T12:44:16.562Z,8.34
2023-03-29T12:46:59.952Z,8.59
2023-03-29T12:49:34.281Z,8.71
2023-03-29T12:52:07.214Z,9.01
2023-03-29T12:54:34.175Z,9.30
2023-03-29T12:57:21.692Z,9.62
2023-03-29T12:59:49.696Z,10.07
2023-03-29T13:02:17.747Z,10.21
2023-03-29T13:04:57.766Z,10.40
2023-03-29T13:07:26.471Z,10.51
2023-03-29T13:09:54.566Z,10.35
2023-03-29T13:12:35.671Z,10.38
2023-03-29T13:15:05.485Z,10.12
2023-03-29T13:17:50.072Z,10.22
2023-03-29T13:20:38.636Z,9.87
2023-03-29T13:23:17.890Z,10.00
2023-03-29T13:26:03.193Z,9.96
2023-03-29T13:28:46.038Z,9.95
2023-03-29T13:31:40.287Z,9.88
2023-03-29T13:34:19.992Z,9.96
2023-03-29T13:36:58.753Z,9.96
2023-03-29T13:39:30.949Z,10.05
2023-03-29T13:42:32.859Z,10.08
2023-03-29T13:45:15.407Z,10.29
2023-03-29T13:47:54.866Z,10.41
2023-03-29T13:50:52.864Z,10.60
2023-03-29T13:53:31.341Z,10.65
2023-03-29T13:55:59.269Z,10.79
2023-03-29T13:58:51.304Z,10.84
2023-03-29T14:01:40.833Z,10.79
2023-03-29T14:04:14.762Z,10.73
2023-03-29T14:06:45.711Z,10.76
2023-03-29T14:09:14.494Z,10.81
2023-03-29T14:11:44.978Z,11.02
2023-03-29T14:14:12.216Z,11.07
2023-03-29T14:16:40.062Z,11.26
2023-03-29T14:19:21.844Z,11.35
2023-03-29T14:21:50.436Z,11.53
2023-03-29T14:24:22.446Z,11.71
2023-03-29T14:26:49.860Z,11.81
2023-03-29T14:29:18.227Z,11.89
2023-03-29T14:31:45.121Z,11.79
2023-03-29T14:34:19.410Z,11.05
2023-03-29T14:36:49.400Z,11.22
2023-03-29T14:39:19.254Z,11.13
2023-03-29T14:41:53.314Z,11.17
2023-03-29T14:44:27.142Z,11.11
2023-03-29T14:46:55.305Z,11.04
2023-03-29T14:49:23.265Z,10.74
2023-03-29T14:51:52.146Z,10.03
2023-03-29T14:54:32.764Z,9.86
2023-03-29T14:57:03.438Z,9.98
2023-03-29T14:59:43.051Z,10.16
2023-03-29T15:02:26.545Z,10.17
2023-03-29T15:05:05.576Z,9.99
2023-03-29T15:07:34.960Z,9.88
2023-03-29T15:10:05.375Z,9.86
2023-03-29T15:12:33.546Z,9.74
2023-03-29T15:15:01.521Z,9.68
2023-03-29T15:17:47.664Z,9.64
2023-03-29T15:20:24.073Z,9.57
2023-03-29T15:23:02.138Z,9.53
2023-03-29T15:25:35.454Z,9.48
2023-03-29T15:28:02.253Z,9.37
2023-03-29T15:30:38.122Z,9.33
2023-03-29T15:33:15.186Z,9.25
2023-03-29T15:35:45.210Z,9.18
2023-03-29T15:38:14.688Z,9.10
2023-03-29T15:40:41.895Z,9.07
2023-03-29T15:43:08.605Z,9.06
2023-03-29T15:45:35.316Z,8.99
2023-03-29T15:48:07.793Z,8.92
2023-03-29T15:50:35.088Z,8.79
2023-03-29T15:53:12.605Z,8.73
2023-03-29T15:55:46.205Z,8.65
2023-03-29T15:58:19.031Z,8.61
2023-03-29T16:00:52.651Z,8.52
2023-03-29T16:03:19.660Z,8.54
2023-03-29T16:05:46.505Z,8.49
2023-03-29T16:08:16.623Z,8.47
2023-03-29T16:10:43.999Z,8.45
2023-03-29T16:13:13.516Z,8.46
2023-03-29T16:15:41.914Z,8.42
2023-03-29T16:18:09.259Z,8.43
2023-03-29T16:20:36.154Z,8.42
2023-03-29T16:23:08.693Z,8.45
2023-03-29T16:25:38.399Z,8.56
2023-03-29T16:28:06.028Z,8.48
2023-03-29T16:30:33.391Z,8.41
2023-03-29T16:33:01.162Z,8.33
2023-03-29T16:35:32.134Z,8.32
2023-03-29T16:37:59.036Z,8.30
2023-03-29T16:40:26.099Z,8.28
2023-03-29T16:42:52.856Z,8.24
2023-03-29T16:45:20.274Z,8.20
2023-03-29T16:47:47.255Z,8.09
2023-03-29T16:50:16.506Z,8.08
2023-03-29T16:52:43.748Z,8.03
2023-03-29T16:55:12.752Z,8.02
2023-03-29T16:57:40.194Z,8.05
2023-03-29T17:00:11.281Z,8.00
2023-03-29T17:02:38.090Z,7.93
2023-03-29T17:05:06.106Z,7.89
2023-03-29T17:07:33.587Z,7.82
2023-03-29T17:10:00.694Z,7.75
2023-03-29T17:12:27.279Z,7.69
2023-03-29T17:14:53.968Z,7.67
2023-03-29T17:17:20.718Z,7.62
2023-03-29T17:19:47.417Z,7.58
2023-03-29T17:22:14.324Z,7.52
2023-03-29T17:24:41.490Z,7.42
2023-03-29T17:27:08.475Z,7.39
2023-03-29T17:29:35.325Z,7.36
2023-03-29T17:32:02.543Z,7.30
2023-03-29T17:34:29.288Z,7.28
2023-03-29T17:36:56.970Z,7.26
2023-03-29T17:39:25.159Z,7.20
2023-03-29T17:41:52.186Z,7.17
2023-03-29T17:44:19.556Z,7.14
2023-03-29T17:46:46.754Z,7.11
2023-03-29T17:49:14.896Z,7.08
2023-03-29T17:51:41.730Z,7.06
2023-03-29T17:54:08.512Z,7.00
2023-03-29T17:56:35.371Z,6.96
2023-03-29T17:59:02.166Z,6.77
2023-03-29T18:01:29.356Z,6.85
2023-03-29T18:03:55.945Z,6.79
2023-03-29T18:06:23.794Z,6.70
2023-03-29T18:08:53.132Z,6.55
2023-03-29T18:11:24.757Z,6.28
2023-03-29T18:13:52.590Z,6.15
2023-03-29T18:16:20.913Z,6.05
2023-03-29T18:18:48.301Z,5.95
2023-03-29T18:21:16.340Z,5.89
2023-03-29T18:23:47.668Z,5.84
2023-03-29T18:26:16.417Z,5.80
2023-03-29T18:28:46.959Z,5.75
2023-03-29T18:31:14.930Z,5.74
2023-03-29T18:33:41.870Z,5.64
2023-03-29T18:36:12.930Z,5.52
2023-03-29T18:38:43.149Z,5.50
2023-03-29T18:41:12.241Z,5.44
2023-03-29T18:43:39.947Z,5.37
2023-03-29T18:46:08.233Z,5.29
2023-03-29T18:48:39.054Z,4.94
2023-03-29T18:51:07.515Z,4.65
2023-03-29T18:53:35.572Z,4.54
2023-03-29T18:56:03.534Z,4.63
2023-03-29T18:58:31.287Z,4.71
2023-03-29T19:01:03.726Z,4.56
2023-03-29T19:03:32.672Z,4.44
2023-03-29T19:05:59.562Z,4.44
2023-03-29T19:08:26.671Z,4.39
2023-03-29T19:10:59.961Z,4.29
2023-03-29T19:13:27.160Z,4.30
2023-03-29T19:15:53.907Z,4.27
2023-03-29T19:18:21.983Z,4.22
2023-03-29T19:20:51.319Z,4.17
2023-03-29T19:23:18.333Z,4.18
2023-03-29T19:25:54.012Z,4.18
2023-03-29T19:28:20.716Z,4.12
2023-03-29T19:30:47.506Z,3.69
2023-03-29T19:33:14.675Z,3.59
2023-03-29T19:35:41.784Z,3.37
2023-03-29T19:38:08.706Z,3.63
2023-03-29T19:40:36.561Z,3.78
2023-03-29T19:43:03.762Z,3.87
2023-03-29T19:45:30.736Z,3.93
2023-03-29T19:48:02.532Z,3.84
2023-03-29T19:50:31.646Z,3.41
2023-03-29T19:52:58.578Z,3.33
2023-03-29T19:55:26.479Z,3.08
2023-03-29T19:57:53.265Z,3.08
2023-03-29T20:00:24.470Z,3.10
2023-03-29T20:02:52.590Z,3.11
2023-03-29T20:05:20.213Z,2.94
2023-03-29T20:07:47.105Z,2.79
2023-03-29T20:10:14.323Z,2.68
2023-03-29T20:12:41.127Z,2.62
2023-03-29T20:15:08.538Z,2.51
2023-03-29T20:17:35.654Z,2.43
2023-03-29T20:20:08.283Z,2.31
2023-03-29T20:22:42.348Z,2.17
2023-03-29T20:25:09.938Z,2.08
2023-03-29T20:27:37.211Z,2.00
2023-03-29T20:30:04.669Z,1.90
2023-03-29T20:32:31.423Z,1.70
2023-03-29T20:34:58.290Z,1.60
2023-03-29T20:37:25.900Z,1.65
2023-03-29T20:39:53.613Z,1.68
2023-03-29T20:42:24.499Z,1.73
2023-03-29T20:44:51.409Z,1.75
2023-03-29T20:47:19.323Z,1.83
2023-03-29T20:49:46.088Z,1.84
2023-03-29T20:52:15.532Z,1.83
2023-03-29T20:54:43.895Z,1.86
2023-03-29T20:57:16.088Z,1.82
2023-03-29T20:59:44.031Z,1.78
2023-03-29T21:02:20.940Z,1.72
2023-03-29T21:04:52.756Z,1.66
2023-03-29T21:07:21.487Z,1.62
2023-03-29T21:09:50.137Z,1.55
2023-03-29T21:12:17.568Z,1.49
2023-03-29T21:14:44.851Z,1.48
2023-03-29T21:17:11.692Z,1.44
2023-03-29T21:19:39.554Z,1.25
2023-03-29T21:22:06.759Z,1.12
2023-03-29T21:24:36.483Z,1.03
2023-03-29T21:27:03.309Z,1.03
2023-03-29T21:29:29.990Z,0.97
2023-03-29T21:31:56.936Z,0.90
2023-03-29T21:34:23.898Z,0.90
2023-03-29T21:36:50.723Z,0.99
2023-03-29T21:39:17.437Z,1.06
2023-03-29T21:41:44.332Z,1.12
2023-03-29T21:44:11.738Z,1.16
2023-03-29T21:46:38.655Z,1.13
2023-03-29T21:49:05.502Z,0.90
2023-03-29T21:51:32.703Z,0.85
2023-03-29T21:53:59.452Z,0.87
2023-03-29T21:56:26.392Z,0.89
2023-03-29T21:58:53.075Z,0.86
2023-03-29T22:01:20.056Z,0.82
2023-03-29T22:03:47.533Z,0.78
2023-03-29T22:06:14.660Z,0.73
2023-03-29T22:08:41.334Z,0.53
2023-03-29T22:11:11.081Z,0.44
2023-03-29T22:13:37.924Z,0.50
2023-03-29T22:16:05.166Z,0.62
2023-03-29T22:18:43.212Z,0.75
2023-03-29T22:21:13.919Z,0.42
2023-03-29T22:23:45.893Z,0.20
2023-03-29T22:26:14.176Z,0.32
2023-03-29T22:28:41.736Z,0.52
2023-03-29T22:31:11.451Z,0.43
2023-03-29T22:33:39.232Z,0.39
2023-03-29T22:36:19.224Z,0.40
2023-03-29T22:38:47.008Z,0.40
2023-03-29T22:41:16.991Z,0.51
2023-03-29T22:43:44.179Z,0.59
2023-03-29T22:46:12.891Z,0.60
2023-03-29T22:48:40.129Z,0.63
2023-03-29T22:51:06.955Z,0.68
2023-03-29T22:53:34.174Z,0.66
2023-03-29T22:56:00.950Z,0.63
2023-03-29T22:58:29.476Z,0.58
2023-03-29T23:00:57.925Z,0.51
2023-03-29T23:03:24.930Z,0.44
2023-03-29T23:05:56.448Z,0.40
2023-03-29T23:08:24.323Z,0.38
2023-03-29T23:10:51.640Z,0.32
2023-03-29T23:13:25.981Z,0.26
2023-03-29T23:15:57.961Z,0.25
2023-03-29T23:18:25.025Z,0.31
2023-03-29T23:20:54.646Z,0.33
2023-03-29T23:23:22.784Z,0.32
2023-03-29T23:25:51.120Z,0.18
2023-03-29T23:28:21.764Z,0.11
2023-03-29T23:31:03.275Z,0.13
2023-03-29T23:33:33.658Z,0.16
2023-03-29T23:36:05.735Z,0.22
2023-03-29T23:38:34.342Z,0.27
2023-03-29T23:41:03.246Z,0.36
2023-03-29T23:43:33.123Z,0.42
2023-03-29T23:46:16.897Z,0.57
2023-03-29T23:48:45.956Z,0.67
2023-03-29T23:51:12.970Z,0.75
2023-03-29T23:53:39.809Z,0.74
2023-03-29T23:56:07.753Z,0.75
2023-03-29T23:58:37.418Z,0.76
